sensor_id;sensor_type;location;lat;lon;timestamp;P1;durP1;ratioP1;P2;durP2;ratioP2
75616;SDS011;64200;55.426;37.758;2023-02-21T00:05:15;20.17;;;8.15;;
75616;SDS011;64200;55.426;37.758;2023-02-21T00:10:34;18.67;;;7.10;;
75616;SDS011;64200;55.426;37.758;2023-02-21T00:15:54;24.80;;;9.05;;
75616;SDS011;64200;55.426;37.758;2023-02-21T00:21:13;19.85;;;8.15;;
75616;SDS011;64200;55.426;37.758;2023-02-21T00:26:35;14.18;;;5.90;;
75616;SDS011;64200;55.426;37.758;2023-02-21T00:31:54;14.98;;;7.40;;
75616;SDS011;64200;55.426;37.758;2023-02-21T00:37:13;19.80;;;7.60;;
75616;SDS011;64200;55.426;37.758;2023-02-21T00:42:32;19.10;;;7.15;;
75616;SDS011;64200;55.426;37.758;2023-02-21T00:47:52;13.52;;;6.32;;
75616;SDS011;64200;55.426;37.758;2023-02-21T00:53:11;19.38;;;6.63;;
75616;SDS011;64200;55.426;37.758;2023-02-21T00:58:30;14.05;;;6.75;;
75616;SDS011;64200;55.426;37.758;2023-02-21T01:03:49;17.33;;;6.10;;
75616;SDS011;64200;55.426;37.758;2023-02-21T01:09:09;15.75;;;6.93;;
75616;SDS011;64200;55.426;37.758;2023-02-21T01:14:28;21.95;;;6.72;;
75616;SDS011;64200;55.426;37.758;2023-02-21T01:19:47;19.67;;;7.53;;
75616;SDS011;64200;55.426;37.758;2023-02-21T01:25:07;22.00;;;7.95;;
75616;SDS011;64200;55.426;37.758;2023-02-21T01:30:26;19.02;;;6.65;;
75616;SDS011;64200;55.426;37.758;2023-02-21T01:35:45;25.67;;;10.27;;
75616;SDS011;64200;55.426;37.758;2023-02-21T01:41:04;23.77;;;9.07;;
75616;SDS011;64200;55.426;37.758;2023-02-21T01:46:24;15.95;;;6.47;;
75616;SDS011;64200;55.426;37.758;2023-02-21T01:51:43;21.02;;;7.80;;
75616;SDS011;64200;55.426;37.758;2023-02-21T01:57:03;11.80;;;6.35;;
75616;SDS011;64200;55.426;37.758;2023-02-21T02:02:27;15.50;;;8.25;;
75616;SDS011;64200;55.426;37.758;2023-02-21T02:07:52;29.00;;;10.20;;
75616;SDS011;64200;55.426;37.758;2023-02-21T02:13:30;25.13;;;9.60;;
75616;SDS011;64200;55.426;37.758;2023-02-21T02:50:13;23.27;;;8.70;;
75616;SDS011;64200;55.426;37.758;2023-02-21T03:00:43;16.77;;;8.05;;
75616;SDS011;64200;55.426;37.758;2023-02-21T03:11:22;23.42;;;8.50;;
75616;SDS011;64200;55.426;37.758;2023-02-21T03:22:06;23.85;;;8.20;;
75616;SDS011;64200;55.426;37.758;2023-02-21T03:27:02;18.35;;;9.82;;
75616;SDS011;64200;55.426;37.758;2023-02-21T03:32:10;20.80;;;9.32;;
75616;SDS011;64200;55.426;37.758;2023-02-21T03:37:18;24.58;;;9.48;;
75616;SDS011;64200;55.426;37.758;2023-02-21T03:42:22;23.50;;;8.68;;
75616;SDS011;64200;55.426;37.758;2023-02-21T03:47:22;24.25;;;11.15;;
75616;SDS011;64200;55.426;37.758;2023-02-21T03:52:23;20.83;;;9.40;;
75616;SDS011;64200;55.426;37.758;2023-02-21T03:57:23;28.33;;;11.83;;
75616;SDS011;64200;55.426;37.758;2023-02-21T04:02:24;26.42;;;9.93;;
75616;SDS011;64200;55.426;37.758;2023-02-21T04:07:25;30.17;;;11.77;;
75616;SDS011;64200;55.426;37.758;2023-02-21T04:12:26;30.38;;;11.30;;
75616;SDS011;64200;55.426;37.758;2023-02-21T04:17:26;28.40;;;10.90;;
75616;SDS011;64200;55.426;37.758;2023-02-21T04:22:27;24.57;;;9.80;;
75616;SDS011;64200;55.426;37.758;2023-02-21T04:27:27;21.27;;;10.03;;
75616;SDS011;64200;55.426;37.758;2023-02-21T04:32:28;32.45;;;10.45;;
75616;SDS011;64200;55.426;37.758;2023-02-21T04:37:29;26.37;;;11.70;;
75616;SDS011;64200;55.426;37.758;2023-02-21T04:42:29;27.57;;;11.53;;
75616;SDS011;64200;55.426;37.758;2023-02-21T04:47:30;14.63;;;8.17;;
75616;SDS011;64200;55.426;37.758;2023-02-21T04:52:30;21.17;;;8.23;;
75616;SDS011;64200;55.426;37.758;2023-02-21T04:57:31;18.42;;;8.77;;
75616;SDS011;64200;55.426;37.758;2023-02-21T05:02:32;20.63;;;9.70;;
75616;SDS011;64200;55.426;37.758;2023-02-21T05:07:33;21.52;;;10.07;;
75616;SDS011;64200;55.426;37.758;2023-02-21T05:12:33;21.10;;;10.13;;
75616;SDS011;64200;55.426;37.758;2023-02-21T05:17:34;27.05;;;10.45;;
75616;SDS011;64200;55.426;37.758;2023-02-21T05:22:35;15.00;;;6.55;;
75616;SDS011;64200;55.426;37.758;2023-02-21T05:27:39;10.00;;;3.95;;
75616;SDS011;64200;55.426;37.758;2023-02-21T05:32:39;15.23;;;6.30;;
75616;SDS011;64200;55.426;37.758;2023-02-21T05:37:40;21.85;;;8.95;;
75616;SDS011;64200;55.426;37.758;2023-02-21T05:42:41;19.50;;;7.68;;
75616;SDS011;64200;55.426;37.758;2023-02-21T05:47:42;20.17;;;8.32;;
75616;SDS011;64200;55.426;37.758;2023-02-21T05:52:43;20.83;;;10.00;;
75616;SDS011;64200;55.426;37.758;2023-02-21T05:57:44;18.85;;;9.68;;
75616;SDS011;64200;55.426;37.758;2023-02-21T06:02:44;23.60;;;9.65;;
75616;SDS011;64200;55.426;37.758;2023-02-21T06:07:45;31.30;;;11.80;;
75616;SDS011;64200;55.426;37.758;2023-02-21T06:12:46;26.75;;;11.00;;
75616;SDS011;64200;55.426;37.758;2023-02-21T06:17:47;25.38;;;9.52;;
75616;SDS011;64200;55.426;37.758;2023-02-21T06:22:48;30.33;;;11.65;;
75616;SDS011;64200;55.426;37.758;2023-02-21T06:27:48;19.25;;;9.43;;
75616;SDS011;64200;55.426;37.758;2023-02-21T06:32:49;21.35;;;10.40;;
75616;SDS011;64200;55.426;37.758;2023-02-21T06:37:49;25.40;;;10.43;;
75616;SDS011;64200;55.426;37.758;2023-02-21T06:42:50;21.83;;;8.83;;
75616;SDS011;64200;55.426;37.758;2023-02-21T06:47:50;21.25;;;9.35;;
75616;SDS011;64200;55.426;37.758;2023-02-21T06:52:51;27.20;;;10.23;;
75616;SDS011;64200;55.426;37.758;2023-02-21T06:57:52;28.03;;;10.43;;
75616;SDS011;64200;55.426;37.758;2023-02-21T07:02:52;16.25;;;8.63;;
75616;SDS011;64200;55.426;37.758;2023-02-21T07:07:53;23.42;;;9.77;;
75616;SDS011;64200;55.426;37.758;2023-02-21T07:12:54;19.52;;;10.68;;
75616;SDS011;64200;55.426;37.758;2023-02-21T07:17:54;25.52;;;11.93;;
75616;SDS011;64200;55.426;37.758;2023-02-21T07:27:55;25.17;;;12.93;;
75616;SDS011;64200;55.426;37.758;2023-02-21T07:32:56;25.95;;;15.10;;
75616;SDS011;64200;55.426;37.758;2023-02-21T07:37:57;25.60;;;15.35;;
75616;SDS011;64200;55.426;37.758;2023-02-21T07:42:57;27.67;;;15.77;;
75616;SDS011;64200;55.426;37.758;2023-02-21T07:47:58;26.03;;;17.03;;
75616;SDS011;64200;55.426;37.758;2023-02-21T07:52:59;29.80;;;15.55;;
75616;SDS011;64200;55.426;37.758;2023-02-21T07:57:59;29.30;;;17.95;;
75616;SDS011;64200;55.426;37.758;2023-02-21T08:03:00;27.00;;;13.48;;
75616;SDS011;64200;55.426;37.758;2023-02-21T08:08:01;29.83;;;14.48;;
75616;SDS011;64200;55.426;37.758;2023-02-21T08:13:01;24.80;;;11.98;;
75616;SDS011;64200;55.426;37.758;2023-02-21T08:18:03;24.10;;;12.13;;
75616;SDS011;64200;55.426;37.758;2023-02-21T08:23:03;25.30;;;11.90;;
75616;SDS011;64200;55.426;37.758;2023-02-21T08:28:04;23.00;;;11.53;;
75616;SDS011;64200;55.426;37.758;2023-02-21T08:33:05;24.13;;;11.75;;
75616;SDS011;64200;55.426;37.758;2023-02-21T08:38:05;20.90;;;11.27;;
75616;SDS011;64200;55.426;37.758;2023-02-21T08:43:07;25.55;;;11.90;;
75616;SDS011;64200;55.426;37.758;2023-02-21T08:48:08;20.73;;;10.75;;
75616;SDS011;64200;55.426;37.758;2023-02-21T08:53:10;23.15;;;10.52;;
75616;SDS011;64200;55.426;37.758;2023-02-21T08:58:12;27.63;;;10.80;;
75616;SDS011;64200;55.426;37.758;2023-02-21T09:03:13;23.05;;;10.00;;
75616;SDS011;64200;55.426;37.758;2023-02-21T09:08:13;19.57;;;9.73;;
75616;SDS011;64200;55.426;37.758;2023-02-21T09:13:16;20.90;;;10.73;;
75616;SDS011;64200;55.426;37.758;2023-02-21T09:18:17;22.20;;;10.77;;
75616;SDS011;64200;55.426;37.758;2023-02-21T09:23:17;22.83;;;11.57;;
75616;SDS011;64200;55.426;37.758;2023-02-21T09:28:19;20.73;;;11.90;;
75616;SDS011;64200;55.426;37.758;2023-02-21T09:33:21;23.67;;;13.25;;
75616;SDS011;64200;55.426;37.758;2023-02-21T09:38:22;28.15;;;12.85;;
75616;SDS011;64200;55.426;37.758;2023-02-21T09:43:32;20.08;;;10.77;;
75616;SDS011;64200;55.426;37.758;2023-02-21T09:48:35;21.75;;;11.93;;
75616;SDS011;64200;55.426;37.758;2023-02-21T09:53:37;29.70;;;14.32;;
75616;SDS011;64200;55.426;37.758;2023-02-21T09:58:41;25.45;;;13.48;;
75616;SDS011;64200;55.426;37.758;2023-02-21T10:08:56;26.52;;;13.10;;
75616;SDS011;64200;55.426;37.758;2023-02-21T10:19:25;22.20;;;11.55;;
75616;SDS011;64200;55.426;37.758;2023-02-21T10:24:31;25.42;;;12.02;;
75616;SDS011;64200;55.426;37.758;2023-02-21T10:29:42;21.17;;;11.65;;
75616;SDS011;64200;55.426;37.758;2023-02-21T10:34:50;25.25;;;12.77;;
75616;SDS011;64200;55.426;37.758;2023-02-21T10:39:52;24.00;;;12.35;;
75616;SDS011;64200;55.426;37.758;2023-02-21T10:44:57;20.80;;;11.48;;
75616;SDS011;64200;55.426;37.758;2023-02-21T10:50:05;22.20;;;12.75;;
75616;SDS011;64200;55.426;37.758;2023-02-21T10:55:22;18.40;;;11.10;;
75616;SDS011;64200;55.426;37.758;2023-02-21T11:00:39;19.25;;;11.40;;
75616;SDS011;64200;55.426;37.758;2023-02-21T11:05:50;24.13;;;12.68;;
75616;SDS011;64200;55.426;37.758;2023-02-21T11:10:53;20.60;;;11.27;;
75616;SDS011;64200;55.426;37.758;2023-02-21T11:21:34;19.27;;;11.23;;
75616;SDS011;64200;55.426;37.758;2023-02-21T11:26:43;19.05;;;10.52;;
75616;SDS011;64200;55.426;37.758;2023-02-21T11:31:46;16.95;;;9.85;;
75616;SDS011;64200;55.426;37.758;2023-02-21T11:36:47;18.25;;;11.25;;
75616;SDS011;64200;55.426;37.758;2023-02-21T11:47:00;21.10;;;11.55;;
75616;SDS011;64200;55.426;37.758;2023-02-21T11:52:08;20.25;;;12.10;;
75616;SDS011;64200;55.426;37.758;2023-02-21T11:57:16;22.90;;;13.77;;
75616;SDS011;64200;55.426;37.758;2023-02-21T12:45:00;18.02;;;10.57;;
75616;SDS011;64200;55.426;37.758;2023-02-21T12:50:21;18.38;;;11.55;;
75616;SDS011;64200;55.426;37.758;2023-02-21T12:55:27;21.75;;;10.07;;
75616;SDS011;64200;55.426;37.758;2023-02-21T13:05:50;21.73;;;10.88;;
75616;SDS011;64200;55.426;37.758;2023-02-21T13:16:01;20.73;;;10.52;;
75616;SDS011;64200;55.426;37.758;2023-02-21T13:26:57;21.20;;;10.32;;
75616;SDS011;64200;55.426;37.758;2023-02-21T13:32:10;20.27;;;9.43;;
75616;SDS011;64200;55.426;37.758;2023-02-21T13:37:16;18.92;;;8.98;;
75616;SDS011;64200;55.426;37.758;2023-02-21T13:42:21;19.42;;;9.00;;
75616;SDS011;64200;55.426;37.758;2023-02-21T13:47:24;22.67;;;9.57;;
75616;SDS011;64200;55.426;37.758;2023-02-21T13:57:30;23.08;;;9.90;;
75616;SDS011;64200;55.426;37.758;2023-02-21T14:02:33;20.90;;;9.80;;
75616;SDS011;64200;55.426;37.758;2023-02-21T14:07:47;18.42;;;9.32;;
75616;SDS011;64200;55.426;37.758;2023-02-21T14:12:55;20.90;;;9.15;;
75616;SDS011;64200;55.426;37.758;2023-02-21T14:17:59;22.00;;;9.93;;
75616;SDS011;64200;55.426;37.758;2023-02-21T14:23:00;26.25;;;10.15;;
75616;SDS011;64200;55.426;37.758;2023-02-21T14:28:00;23.55;;;9.98;;
75616;SDS011;64200;55.426;37.758;2023-02-21T14:33:23;20.47;;;7.43;;
75616;SDS011;64200;55.426;37.758;2023-02-21T14:38:26;22.80;;;10.07;;
75616;SDS011;64200;55.426;37.758;2023-02-21T14:43:41;21.75;;;8.82;;
75616;SDS011;64200;55.426;37.758;2023-02-21T14:59:29;15.48;;;7.40;;
75616;SDS011;64200;55.426;37.758;2023-02-21T15:04:32;19.52;;;6.97;;
75616;SDS011;64200;55.426;37.758;2023-02-21T15:14:40;17.13;;;7.40;;
75616;SDS011;64200;55.426;37.758;2023-02-21T15:20:05;18.20;;;8.30;;
75616;SDS011;64200;55.426;37.758;2023-02-21T15:25:14;15.15;;;7.25;;
75616;SDS011;64200;55.426;37.758;2023-02-21T15:30:21;18.95;;;8.25;;
75616;SDS011;64200;55.426;37.758;2023-02-21T15:35:25;13.80;;;7.80;;
75616;SDS011;64200;55.426;37.758;2023-02-21T15:40:31;17.42;;;7.30;;
75616;SDS011;64200;55.426;37.758;2023-02-21T15:50:42;19.25;;;7.10;;
75616;SDS011;64200;55.426;37.758;2023-02-21T15:55:46;15.35;;;6.38;;
75616;SDS011;64200;55.426;37.758;2023-02-21T16:00:51;19.02;;;8.27;;
75616;SDS011;64200;55.426;37.758;2023-02-21T16:06:08;18.58;;;8.27;;
75616;SDS011;64200;55.426;37.758;2023-02-21T16:11:12;14.57;;;7.25;;
75616;SDS011;64200;55.426;37.758;2023-02-21T16:16:12;20.35;;;7.95;;
75616;SDS011;64200;55.426;37.758;2023-02-21T16:21:20;19.40;;;7.45;;
75616;SDS011;64200;55.426;37.758;2023-02-21T16:26:23;17.10;;;8.73;;
75616;SDS011;64200;55.426;37.758;2023-02-21T16:31:28;17.48;;;6.85;;
75616;SDS011;64200;55.426;37.758;2023-02-21T16:36:30;19.65;;;8.18;;
75616;SDS011;64200;55.426;37.758;2023-02-21T16:41:34;20.35;;;7.50;;
75616;SDS011;64200;55.426;37.758;2023-02-21T16:46:37;15.50;;;7.20;;
75616;SDS011;64200;55.426;37.758;2023-02-21T16:51:37;13.90;;;6.38;;
75616;SDS011;64200;55.426;37.758;2023-02-21T16:56:43;12.93;;;6.45;;
75616;SDS011;64200;55.426;37.758;2023-02-21T17:01:46;17.38;;;6.72;;
75616;SDS011;64200;55.426;37.758;2023-02-21T17:06:49;16.35;;;6.38;;
75616;SDS011;64200;55.426;37.758;2023-02-21T17:11:52;15.52;;;5.55;;
75616;SDS011;64200;55.426;37.758;2023-02-21T17:21:56;13.15;;;5.75;;
75616;SDS011;64200;55.426;37.758;2023-02-21T17:26:57;15.05;;;6.97;;
75616;SDS011;64200;55.426;37.758;2023-02-21T17:31:58;18.58;;;7.30;;
75616;SDS011;64200;55.426;37.758;2023-02-21T17:37:02;18.42;;;7.68;;
75616;SDS011;64200;55.426;37.758;2023-02-21T17:42:03;22.13;;;8.18;;
75616;SDS011;64200;55.426;37.758;2023-02-21T17:47:04;24.85;;;7.97;;
75616;SDS011;64200;55.426;37.758;2023-02-21T17:52:06;18.05;;;7.78;;
75616;SDS011;64200;55.426;37.758;2023-02-21T17:57:07;22.77;;;9.40;;
75616;SDS011;64200;55.426;37.758;2023-02-21T18:02:11;18.60;;;9.80;;
75616;SDS011;64200;55.426;37.758;2023-02-21T18:07:12;10.13;;;4.82;;
75616;SDS011;64200;55.426;37.758;2023-02-21T18:12:13;19.00;;;6.63;;
75616;SDS011;64200;55.426;37.758;2023-02-21T18:22:17;19.13;;;7.22;;
75616;SDS011;64200;55.426;37.758;2023-02-21T18:27:17;15.35;;;7.50;;
75616;SDS011;64200;55.426;37.758;2023-02-21T18:37:19;18.43;;;7.47;;
75616;SDS011;64200;55.426;37.758;2023-02-21T18:42:20;20.37;;;9.43;;
75616;SDS011;64200;55.426;37.758;2023-02-21T18:47:23;21.90;;;8.05;;
75616;SDS011;64200;55.426;37.758;2023-02-21T18:52:24;20.30;;;8.43;;
75616;SDS011;64200;55.426;37.758;2023-02-21T18:57:25;19.83;;;7.35;;
75616;SDS011;64200;55.426;37.758;2023-02-21T19:02:27;19.52;;;8.10;;
75616;SDS011;64200;55.426;37.758;2023-02-21T19:07:27;16.63;;;6.57;;
75616;SDS011;64200;55.426;37.758;2023-02-21T19:12:30;11.80;;;5.38;;
75616;SDS011;64200;55.426;37.758;2023-02-21T19:17:34;22.02;;;7.85;;
75616;SDS011;64200;55.426;37.758;2023-02-21T19:22:35;20.13;;;7.90;;
75616;SDS011;64200;55.426;37.758;2023-02-21T19:27:36;20.90;;;7.18;;
75616;SDS011;64200;55.426;37.758;2023-02-21T19:32:37;16.10;;;8.07;;
75616;SDS011;64200;55.426;37.758;2023-02-21T19:37:37;21.42;;;8.52;;
75616;SDS011;64200;55.426;37.758;2023-02-21T19:42:38;20.52;;;7.28;;
75616;SDS011;64200;55.426;37.758;2023-02-21T19:47:39;13.95;;;5.72;;
75616;SDS011;64200;55.426;37.758;2023-02-21T19:52:40;19.75;;;7.28;;
75616;SDS011;64200;55.426;37.758;2023-02-21T19:57:41;16.27;;;6.90;;
75616;SDS011;64200;55.426;37.758;2023-02-21T20:02:41;17.40;;;8.13;;
75616;SDS011;64200;55.426;37.758;2023-02-21T20:07:45;19.40;;;7.13;;
75616;SDS011;64200;55.426;37.758;2023-02-21T20:12:46;18.48;;;7.50;;
75616;SDS011;64200;55.426;37.758;2023-02-21T20:17:46;18.83;;;7.77;;
75616;SDS011;64200;55.426;37.758;2023-02-21T20:22:47;23.88;;;7.45;;
75616;SDS011;64200;55.426;37.758;2023-02-21T20:27:47;11.70;;;6.13;;
75616;SDS011;64200;55.426;37.758;2023-02-21T20:32:48;17.53;;;6.70;;
75616;SDS011;64200;55.426;37.758;2023-02-21T20:37:49;16.98;;;6.53;;
75616;SDS011;64200;55.426;37.758;2023-02-21T20:42:49;19.65;;;7.53;;
75616;SDS011;64200;55.426;37.758;2023-02-21T20:47:53;16.58;;;7.13;;
75616;SDS011;64200;55.426;37.758;2023-02-21T20:52:54;13.20;;;6.15;;
75616;SDS011;64200;55.426;37.758;2023-02-21T20:57:54;16.47;;;6.73;;
75616;SDS011;64200;55.426;37.758;2023-02-21T21:02:55;20.83;;;7.20;;
75616;SDS011;64200;55.426;37.758;2023-02-21T21:07:56;16.80;;;6.97;;
75616;SDS011;64200;55.426;37.758;2023-02-21T21:12:57;16.00;;;7.25;;
75616;SDS011;64200;55.426;37.758;2023-02-21T21:17:57;16.83;;;8.07;;
75616;SDS011;64200;55.426;37.758;2023-02-21T21:22:58;20.88;;;6.82;;
75616;SDS011;64200;55.426;37.758;2023-02-21T21:27:59;9.47;;;4.93;;
75616;SDS011;64200;55.426;37.758;2023-02-21T21:33:01;29.83;;;5.53;;
75616;SDS011;64200;55.426;37.758;2023-02-21T21:38:05;14.70;;;6.85;;
75616;SDS011;64200;55.426;37.758;2023-02-21T21:43:06;18.60;;;7.15;;
75616;SDS011;64200;55.426;37.758;2023-02-21T21:48:11;15.35;;;6.53;;
75616;SDS011;64200;55.426;37.758;2023-02-21T21:53:13;18.45;;;7.05;;
75616;SDS011;64200;55.426;37.758;2023-02-21T21:58:15;15.70;;;7.45;;
75616;SDS011;64200;55.426;37.758;2023-02-21T22:03:16;13.60;;;5.43;;
75616;SDS011;64200;55.426;37.758;2023-02-21T22:08:18;13.57;;;6.55;;
75616;SDS011;64200;55.426;37.758;2023-02-21T22:13:21;16.50;;;6.85;;
75616;SDS011;64200;55.426;37.758;2023-02-21T22:18:22;15.18;;;5.95;;
75616;SDS011;64200;55.426;37.758;2023-02-21T22:23:23;18.75;;;7.53;;
75616;SDS011;64200;55.426;37.758;2023-02-21T22:28:24;19.20;;;8.50;;
75616;SDS011;64200;55.426;37.758;2023-02-21T22:33:24;16.47;;;7.03;;
75616;SDS011;64200;55.426;37.758;2023-02-21T22:38:25;17.63;;;7.73;;
75616;SDS011;64200;55.426;37.758;2023-02-21T22:43:25;21.03;;;7.90;;
75616;SDS011;64200;55.426;37.758;2023-02-21T22:48:27;15.00;;;6.32;;
75616;SDS011;64200;55.426;37.758;2023-02-21T22:53:27;18.48;;;7.28;;
75616;SDS011;64200;55.426;37.758;2023-02-21T22:58:28;16.08;;;7.60;;
75616;SDS011;64200;55.426;37.758;2023-02-21T23:03:28;16.00;;;6.65;;
75616;SDS011;64200;55.426;37.758;2023-02-21T23:08:31;15.85;;;6.47;;
75616;SDS011;64200;55.426;37.758;2023-02-21T23:13:35;16.85;;;7.60;;
75616;SDS011;64200;55.426;37.758;2023-02-21T23:18:36;13.73;;;6.03;;
75616;SDS011;64200;55.426;37.758;2023-02-21T23:23:38;10.68;;;4.80;;
75616;SDS011;64200;55.426;37.758;2023-02-21T23:28:40;20.27;;;6.97;;
75616;SDS011;64200;55.426;37.758;2023-02-21T23:33:41;21.30;;;7.50;;
75616;SDS011;64200;55.426;37.758;2023-02-21T23:38:41;20.60;;;8.38;;
75616;SDS011;64200;55.426;37.758;2023-02-21T23:43:42;17.70;;;6.75;;
75616;SDS011;64200;55.426;37.758;2023-02-21T23:48:46;15.88;;;8.13;;
75616;SDS011;64200;55.426;37.758;2023-02-21T23:53:48;18.60;;;6.32;;
75616;SDS011;64200;55.426;37.758;2023-02-21T23:58:48;9.32;;;5.13;;
